Time;durP1;ratioP1;P1;durP2;ratioP2;P2;SDS_P1;SDS_P2;PMS_P1;PMS_P2;Temp;Humidity;BMP_temperature;BMP_pressure;BME280_temperature;BME280_humidity;BME280_pressure;Samples;Min_cycle;Max_cycle;Signal;HPM_P1;HPM_P2
2022/05/29 00:02:29;;;;;;;5.57;0.50;;;;;;;;;;5280183;28;20271;-69
2022/05/29 00:05:00;;;;;;;4.45;0.47;;;;;;;;;;5281418;28;20348;-69
2022/05/29 00:07:32;;;;;;;4.38;0.60;;;;;;;;;;5280991;28;20271;-69
2022/05/29 00:10:05;;;;;;;6.43;0.50;;;;;;;;;;5279978;28;20478;-70
2022/05/29 00:12:36;;;;;;;7.18;0.82;;;;;;;;;;5281208;28;20047;-69
2022/05/29 00:15:09;;;;;;;4.38;0.68;;;;;;;;;;5279981;28;20036;-69
2022/05/29 00:17:40;;;;;;;5.82;0.50;;;;;;;;;;5280840;28;20372;-69
2022/05/29 00:20:11;;;;;;;5.63;0.50;;;;;;;;;;5280642;28;20081;-69
2022/05/29 00:22:42;;;;;;;4.78;0.63;;;;;;;;;;5279862;28;20143;-69
2022/05/29 00:25:14;;;;;;;6.30;0.82;;;;;;;;;;5280782;28;20057;-69
2022/05/29 00:27:46;;;;;;;4.53;0.55;;;;;;;;;;5280923;28;20024;-69
2022/05/29 00:30:17;;;;;;;6.78;0.70;;;;;;;;;;5279848;28;20028;-70
2022/05/29 00:32:48;;;;;;;6.72;0.68;;;;;;;;;;5280649;28;20025;-69
2022/05/29 00:35:19;;;;;;;8.93;0.55;;;;;;;;;;5280443;28;20209;-69
2022/05/29 00:37:50;;;;;;;5.47;0.90;;;;;;;;;;5280549;28;20254;-69
2022/05/29 00:40:33;;;;;;;7.82;0.77;;;;;;;;;;5280418;28;20305;-69
2022/05/29 00:43:04;;;;;;;5.10;0.70;;;;;;;;;;5280732;28;20270;-70
2022/05/29 00:45:44;;;;;;;6.55;0.60;;;;;;;;;;5279864;28;20016;-69
2022/05/29 00:48:17;;;;;;;8.77;0.60;;;;;;;;;;5280877;28;20126;-69
2022/05/29 00:50:50;;;;;;;8.23;0.80;;;;;;;;;;5280104;28;20017;-70
2022/05/29 00:53:23;;;;;;;5.50;0.60;;;;;;;;;;5280550;28;20027;-69
2022/05/29 00:56:02;;;;;;;4.60;0.65;;;;;;;;;;5280970;28;20173;-68
2022/05/29 00:58:34;;;;;;;6.68;1.15;;;;;;;;;;5280233;28;20019;-70
2022/05/29 01:01:06;;;;;;;6.70;0.60;;;;;;;;;;5280386;28;20078;-68
2022/05/29 01:03:37;;;;;;;9.85;0.60;;;;;;;;;;5280374;28;20475;-69
2022/05/29 01:06:08;;;;;;;6.18;0.80;;;;;;;;;;5279675;28;20471;-69
2022/05/29 01:08:39;;;;;;;6.28;0.60;;;;;;;;;;5280442;28;20279;-70
2022/05/29 01:11:30;;;;;;;5.68;0.90;;;;;;;;;;5280745;28;20478;-69
2022/05/29 01:14:11;;;;;;;8.88;1.23;;;;;;;;;;5280513;28;20266;-69
2022/05/29 01:16:47;;;;;;;7.63;0.77;;;;;;;;;;5280460;28;20095;-69
2022/05/29 01:19:27;;;;;;;6.97;0.82;;;;;;;;;;5279253;28;20395;-69
2022/05/29 01:22:06;;;;;;;7.43;0.93;;;;;;;;;;5281033;28;20119;-69
2022/05/29 01:24:49;;;;;;;7.25;1.42;;;;;;;;;;5284251;28;20056;-69
2022/05/29 01:27:20;;;;;;;6.70;1.17;;;;;;;;;;5283017;28;20020;-68
2022/05/29 01:29:54;;;;;;;6.93;1.05;;;;;;;;;;5284439;28;20047;-70
2022/05/29 01:32:36;;;;;;;8.52;1.13;;;;;;;;;;5282929;28;20648;-69
2022/05/29 01:35:17;;;;;;;6.72;0.90;;;;;;;;;;5284025;28;20463;-69
2022/05/29 01:38:03;;;;;;;7.57;1.17;;;;;;;;;;5283360;28;20408;-69
2022/05/29 01:40:37;;;;;;;8.10;0.70;;;;;;;;;;5282335;28;20170;-68
2022/05/29 01:43:14;;;;;;;10.27;1.63;;;;;;;;;;5283507;28;20039;-69
2022/05/29 01:46:04;;;;;;;9.20;1.67;;;;;;;;;;5283738;28;20027;-69
2022/05/29 01:48:41;;;;;;;8.05;1.05;;;;;;;;;;5282730;28;20526;-68
2022/05/29 01:51:14;;;;;;;5.68;0.90;;;;;;;;;;5283766;28;20016;-69
2022/05/29 01:53:52;;;;;;;6.65;1.00;;;;;;;;;;5282747;28;20082;-68
2022/05/29 01:56:27;;;;;;;5.40;0.85;;;;;;;;;;5283250;28;20464;-69
2022/05/29 01:59:00;;;;;;;10.85;1.45;;;;;;;;;;5283771;28;20021;-69
2022/05/29 02:01:33;;;;;;;6.40;0.90;;;;;;;;;;5282522;28;20024;-69
2022/05/29 02:04:08;;;;;;;8.10;1.27;;;;;;;;;;5283278;28;20047;-69
2022/05/29 02:09:34;;;;;;;6.00;1.00;;;;;;;;;;5282402;28;20100;-69
2022/05/29 02:12:09;;;;;;;7.72;1.20;;;;;;;;;;5283207;28;20039;-69
2022/05/29 02:14:42;;;;;;;7.90;1.05;;;;;;;;;;5282489;28;20112;-69
2022/05/29 02:17:17;;;;;;;8.55;1.25;;;;;;;;;;5282729;28;20013;-69
2022/05/29 02:19:52;;;;;;;7.78;1.10;;;;;;;;;;5282721;28;20020;-69
2022/05/29 02:22:27;;;;;;;6.95;1.30;;;;;;;;;;5281765;28;20017;-69
2022/05/29 02:25:04;;;;;;;7.78;0.80;;;;;;;;;;5283391;28;20080;-68
2022/05/29 02:27:43;;;;;;;7.40;1.20;;;;;;;;;;5282826;28;20028;-68
2022/05/29 02:30:14;;;;;;;4.20;0.85;;;;;;;;;;5282084;28;20017;-69
2022/05/29 02:32:54;;;;;;;8.02;0.95;;;;;;;;;;5282521;28;20032;-68
2022/05/29 02:35:28;;;;;;;5.38;1.00;;;;;;;;;;5281229;28;20099;-69
2022/05/29 02:38:19;;;;;;;5.13;0.98;;;;;;;;;;5281893;28;20012;-69
2022/05/29 02:40:58;;;;;;;3.97;1.05;;;;;;;;;;5282647;28;20036;-69
2022/05/29 02:43:32;;;;;;;6.47;1.13;;;;;;;;;;5281462;28;20028;-68
2022/05/29 02:46:03;;;;;;;7.00;0.98;;;;;;;;;;5282812;28;20074;-69
2022/05/29 02:48:40;;;;;;;4.35;0.93;;;;;;;;;;5282280;28;20028;-69
2022/05/29 02:51:23;;;;;;;7.20;1.20;;;;;;;;;;5281341;28;20263;-69
2022/05/29 02:53:54;;;;;;;5.18;1.10;;;;;;;;;;5282462;28;20047;-69
2022/05/29 02:56:26;;;;;;;7.40;1.52;;;;;;;;;;5282052;28;20550;-69
2022/05/29 02:58:58;;;;;;;5.68;1.05;;;;;;;;;;5281277;28;20025;-69
2022/05/29 03:01:32;;;;;;;5.18;0.80;;;;;;;;;;5282064;28;20024;-69
2022/05/29 03:04:18;;;;;;;9.13;0.90;;;;;;;;;;5281330;28;20325;-69
2022/05/29 03:06:52;;;;;;;9.45;1.15;;;;;;;;;;5282146;28;20016;-69
2022/05/29 03:09:23;;;;;;;8.07;1.10;;;;;;;;;;5281610;28;20439;-69
2022/05/29 03:11:55;;;;;;;8.57;0.98;;;;;;;;;;5281490;28;20084;-68
2022/05/29 03:14:32;;;;;;;5.78;0.75;;;;;;;;;;5281412;28;20023;-68
2022/05/29 03:17:12;;;;;;;8.68;1.23;;;;;;;;;;5281917;28;20032;-68
2022/05/29 03:19:54;;;;;;;5.38;0.70;;;;;;;;;;5280571;28;20032;-68
2022/05/29 03:22:35;;;;;;;8.55;1.15;;;;;;;;;;5281304;28;20028;-68
2022/05/29 03:25:09;;;;;;;5.75;0.75;;;;;;;;;;5280342;28;20049;-68
2022/05/29 03:27:45;;;;;;;9.60;1.00;;;;;;;;;;5281380;28;20486;-69
2022/05/29 03:30:25;;;;;;;3.53;1.00;;;;;;;;;;5281018;28;20031;-68
2022/05/29 03:32:58;;;;;;;6.60;1.40;;;;;;;;;;5280864;28;20254;-68
2022/05/29 03:35:29;;;;;;;7.15;0.70;;;;;;;;;;5280749;28;20024;-68
2022/05/29 03:38:01;;;;;;;10.32;0.82;;;;;;;;;;5281181;28;20135;-68
2022/05/29 03:40:33;;;;;;;4.88;1.20;;;;;;;;;;5280126;28;20294;-68
2022/05/29 03:43:04;;;;;;;8.20;1.10;;;;;;;;;;5281496;28;20016;-69
2022/05/29 03:45:35;;;;;;;4.70;1.02;;;;;;;;;;5280765;28;20032;-68
2022/05/29 03:48:07;;;;;;;9.20;1.30;;;;;;;;;;5280330;28;20353;-69
2022/05/29 03:50:38;;;;;;;6.90;0.77;;;;;;;;;;5280967;28;20029;-69
2022/05/29 03:53:09;;;;;;;7.30;1.00;;;;;;;;;;5280101;28;20032;-69
2022/05/29 03:55:40;;;;;;;6.45;0.80;;;;;;;;;;5281200;28;20108;-69
2022/05/29 03:58:11;;;;;;;6.78;1.17;;;;;;;;;;5281021;28;20035;-70
2022/05/29 04:00:42;;;;;;;9.22;0.80;;;;;;;;;;5280207;28;20370;-69
2022/05/29 04:03:13;;;;;;;7.95;0.80;;;;;;;;;;5280919;28;20032;-68
2022/05/29 04:05:45;;;;;;;6.28;0.93;;;;;;;;;;5280856;28;20607;-69
2022/05/29 04:13:56;;;;;;;10.52;1.35;;;;;;;;;;5281429;28;20016;-69
2022/05/29 04:16:27;;;;;;;6.70;1.00;;;;;;;;;;5279971;28;20016;-69
2022/05/29 04:18:58;;;;;;;7.68;1.00;;;;;;;;;;5281190;28;20016;-69
2022/05/29 04:21:29;;;;;;;7.18;0.93;;;;;;;;;;5279789;28;20379;-68
2022/05/29 04:24:00;;;;;;;7.75;1.00;;;;;;;;;;5280770;28;20051;-69
2022/05/29 04:26:33;;;;;;;4.15;0.77;;;;;;;;;;5280779;28;20271;-69
2022/05/29 04:29:05;;;;;;;6.00;1.02;;;;;;;;;;5280388;28;20258;-68
2022/05/29 04:31:36;;;;;;;6.10;0.88;;;;;;;;;;5280901;28;20020;-69
2022/05/29 04:34:07;;;;;;;8.13;1.75;;;;;;;;;;5280700;28;20043;-69
2022/05/29 04:36:38;;;;;;;5.90;0.75;;;;;;;;;;5279925;28;20275;-69
2022/05/29 04:39:09;;;;;;;7.63;1.45;;;;;;;;;;5280483;28;20715;-69
2022/05/29 04:41:40;;;;;;;7.57;1.38;;;;;;;;;;5280721;28;20346;-68
2022/05/29 04:44:11;;;;;;;7.88;1.20;;;;;;;;;;5279950;28;20251;-69
2022/05/29 04:46:43;;;;;;;9.82;1.50;;;;;;;;;;5280572;28;20281;-69
2022/05/29 04:49:14;;;;;;;7.97;1.60;;;;;;;;;;5280606;28;20664;-69
2022/05/29 04:51:45;;;;;;;8.63;1.38;;;;;;;;;;5279976;28;20041;-68
2022/05/29 04:54:16;;;;;;;11.40;1.85;;;;;;;;;;5280609;28;20408;-68
2022/05/29 04:56:47;;;;;;;9.15;1.88;;;;;;;;;;5280159;28;20668;-68
2022/05/29 04:59:19;;;;;;;9.30;1.50;;;;;;;;;;5284317;28;20776;-68
2022/05/29 05:01:50;;;;;;;7.50;2.22;;;;;;;;;;5284693;28;20032;-67
2022/05/29 05:04:21;;;;;;;10.30;1.95;;;;;;;;;;5283729;28;20251;-68
2022/05/29 05:06:58;;;;;;;13.73;2.03;;;;;;;;;;5284753;28;20040;-68
2022/05/29 05:09:30;;;;;;;9.52;2.42;;;;;;;;;;5283821;28;20290;-68
2022/05/29 05:12:01;;;;;;;4.40;1.30;;;;;;;;;;5283618;28;20113;-68
2022/05/29 05:14:33;;;;;;;9.35;1.80;;;;;;;;;;5284123;28;20028;-68
2022/05/29 05:17:04;;;;;;;10.65;1.40;;;;;;;;;;5284321;28;20282;-68
2022/05/29 05:19:35;;;;;;;6.72;1.50;;;;;;;;;;5283289;28;20032;-68
2022/05/29 05:22:09;;;;;;;11.13;1.67;;;;;;;;;;5284216;28;20107;-69
2022/05/29 05:24:40;;;;;;;10.32;1.70;;;;;;;;;;5283089;28;20055;-68
2022/05/29 05:27:12;;;;;;;6.57;1.70;;;;;;;;;;5284261;28;20099;-68
2022/05/29 05:29:43;;;;;;;10.88;1.88;;;;;;;;;;5284246;28;20305;-68
2022/05/29 05:32:14;;;;;;;8.15;1.70;;;;;;;;;;5283273;28;20048;-69
2022/05/29 05:34:45;;;;;;;4.80;1.15;;;;;;;;;;5283846;28;20028;-69
2022/05/29 05:37:16;;;;;;;5.42;1.48;;;;;;;;;;5283800;28;21041;-69
2022/05/29 05:39:50;;;;;;;6.15;1.42;;;;;;;;;;5283101;28;20426;-70
2022/05/29 05:42:21;;;;;;;6.95;2.22;;;;;;;;;;5283659;28;20137;-68
2022/05/29 05:44:52;;;;;;;9.18;1.44;;;;;;;;;;5284279;28;20042;-67
2022/05/29 05:47:24;;;;;;;7.00;2.08;;;;;;;;;;5282628;28;20214;-68
2022/05/29 05:49:55;;;;;;;4.75;1.45;;;;;;;;;;5283602;28;20099;-67
2022/05/29 05:52:26;;;;;;;9.43;2.28;;;;;;;;;;5283117;28;20067;-68
2022/05/29 05:54:58;;;;;;;3.65;1.58;;;;;;;;;;5283131;28;20028;-67
2022/05/29 05:57:29;;;;;;;9.00;2.22;;;;;;;;;;5283174;28;20472;-67
2022/05/29 06:00:00;;;;;;;6.80;1.60;;;;;;;;;;5282734;28;20036;-68
2022/05/29 06:02:31;;;;;;;6.25;1.58;;;;;;;;;;5283512;28;20263;-67
2022/05/29 06:05:02;;;;;;;6.80;1.95;;;;;;;;;;5283327;28;20031;-67
2022/05/29 06:07:33;;;;;;;11.85;1.67;;;;;;;;;;5282395;28;20390;-68
2022/05/29 06:10:05;;;;;;;6.70;1.73;;;;;;;;;;5283242;28;20029;-67
2022/05/29 06:12:37;;;;;;;8.35;1.85;;;;;;;;;;5283188;28;20267;-67
2022/05/29 06:15:08;;;;;;;4.80;1.30;;;;;;;;;;5282315;28;20428;-67
2022/05/29 06:17:40;;;;;;;11.27;1.67;;;;;;;;;;5283256;28;20480;-68
2022/05/29 06:20:12;;;;;;;11.10;1.70;;;;;;;;;;5282912;28;20036;-68
2022/05/29 06:22:43;;;;;;;10.15;1.52;;;;;;;;;;5282278;28;20547;-68
2022/05/29 06:25:15;;;;;;;7.20;1.20;;;;;;;;;;5282734;28;20064;-68
2022/05/29 06:27:46;;;;;;;10.82;1.83;;;;;;;;;;5282525;28;20290;-68
2022/05/29 06:30:18;;;;;;;9.60;1.80;;;;;;;;;;5283128;28;20066;-68
2022/05/29 06:32:49;;;;;;;6.68;1.70;;;;;;;;;;5282841;28;20271;-68
2022/05/29 06:35:20;;;;;;;8.07;1.95;;;;;;;;;;5281592;28;20306;-68
2022/05/29 06:37:52;;;;;;;4.35;1.10;;;;;;;;;;5282805;28;20017;-68
2022/05/29 06:40:23;;;;;;;6.38;1.75;;;;;;;;;;5282423;28;20067;-68
2022/05/29 06:42:54;;;;;;;6.75;1.25;;;;;;;;;;5282379;28;20281;-68
2022/05/29 06:45:25;;;;;;;7.10;1.45;;;;;;;;;;5282355;28;20040;-68
2022/05/29 06:47:57;;;;;;;6.07;0.90;;;;;;;;;;5282679;28;20024;-69
2022/05/29 06:50:28;;;;;;;5.30;0.80;;;;;;;;;;5281367;28;20271;-69
2022/05/29 06:52:59;;;;;;;5.00;0.90;;;;;;;;;;5282610;28;20258;-69
2022/05/29 06:55:30;;;;;;;6.25;1.30;;;;;;;;;;5281589;28;20269;-68
2022/05/29 06:58:01;;;;;;;4.10;0.90;;;;;;;;;;5281049;28;20023;-68
2022/05/29 07:09:04;;;;;;;5.65;0.90;;;;;;;;;;5281915;28;20025;-68
2022/05/29 07:11:38;;;;;;;7.65;1.15;;;;;;;;;;5280932;28;20028;-68
2022/05/29 07:14:10;;;;;;;3.95;0.80;;;;;;;;;;5281511;28;20025;-68
2022/05/29 07:16:41;;;;;;;4.65;0.82;;;;;;;;;;5281686;28;20470;-68
2022/05/29 07:19:13;;;;;;;8.13;1.13;;;;;;;;;;5280565;28;20039;-68
2022/05/29 07:21:44;;;;;;;7.07;0.90;;;;;;;;;;5281015;28;20279;-68
2022/05/29 07:24:15;;;;;;;5.53;1.33;;;;;;;;;;5280707;28;20052;-68
2022/05/29 07:26:46;;;;;;;5.68;1.08;;;;;;;;;;5281544;28;20640;-68
2022/05/29 07:29:18;;;;;;;7.07;1.38;;;;;;;;;;5281695;28;20342;-69
2022/05/29 07:31:50;;;;;;;5.72;0.93;;;;;;;;;;5281050;28;20262;-68
2022/05/29 07:34:21;;;;;;;5.88;1.10;;;;;;;;;;5280962;28;20020;-68
2022/05/29 07:36:53;;;;;;;6.03;1.02;;;;;;;;;;5281872;28;20459;-69
2022/05/29 07:39:24;;;;;;;8.27;0.70;;;;;;;;;;5279759;28;20149;-65
2022/05/29 07:44:45;;;;;;;8.73;1.17;;;;;;;;;;5281306;28;20036;-67
2022/05/29 07:47:16;;;;;;;6.63;0.95;;;;;;;;;;5280644;28;20352;-68
2022/05/29 07:49:47;;;;;;;7.78;0.80;;;;;;;;;;5281134;28;20269;-67
2022/05/29 07:52:18;;;;;;;6.15;0.82;;;;;;;;;;5280190;28;20025;-69
2022/05/29 07:54:49;;;;;;;6.23;1.17;;;;;;;;;;5281451;28;20038;-70
2022/05/29 07:57:21;;;;;;;8.00;0.80;;;;;;;;;;5280902;28;20286;-69
2022/05/29 07:59:52;;;;;;;3.90;0.50;;;;;;;;;;5280585;28;20306;-70
2022/05/29 08:02:23;;;;;;;4.88;0.60;;;;;;;;;;5280650;28;20028;-70
2022/05/29 08:04:59;;;;;;;4.45;0.57;;;;;;;;;;5280977;28;20443;-70
2022/05/29 08:07:30;;;;;;;7.72;0.80;;;;;;;;;;5279802;28;20266;-69
2022/05/29 08:10:02;;;;;;;4.47;0.52;;;;;;;;;;5281378;28;20024;-69
2022/05/29 08:12:33;;;;;;;5.57;1.30;;;;;;;;;;5280928;28;20100;-69
2022/05/29 08:15:05;;;;;;;6.90;0.60;;;;;;;;;;5280988;28;20040;-69
2022/05/29 08:17:37;;;;;;;7.72;0.70;;;;;;;;;;5281072;28;20462;-69
2022/05/29 08:20:09;;;;;;;9.05;0.75;;;;;;;;;;5280616;28;20372;-70
2022/05/29 08:22:41;;;;;;;6.50;0.80;;;;;;;;;;5279600;28;20486;-70
2022/05/29 08:30:53;;;;;;;3.90;0.55;;;;;;;;;;5280688;28;20024;-69
2022/05/29 08:33:26;;;;;;;5.63;0.85;;;;;;;;;;5284850;28;20113;-70
2022/05/29 08:36:00;;;;;;;8.10;0.73;;;;;;;;;;5284722;28;20056;-70
2022/05/29 08:38:32;;;;;;;6.78;1.17;;;;;;;;;;5284789;28;20009;-70
2022/05/29 08:41:05;;;;;;;5.57;0.55;;;;;;;;;;5284595;28;20027;-69
2022/05/29 08:43:38;;;;;;;5.72;0.40;;;;;;;;;;5284261;28;20016;-70
2022/05/29 08:46:14;;;;;;;5.70;0.52;;;;;;;;;;5284894;28;20383;-71
2022/05/29 08:48:48;;;;;;;4.38;0.40;;;;;;;;;;5284085;28;20097;-70
2022/05/29 08:51:34;;;;;;;2.95;0.40;;;;;;;;;;5284275;28;20082;-71
2022/05/29 08:54:05;;;;;;;5.55;0.60;;;;;;;;;;5284997;28;20083;-71
2022/05/29 08:56:39;;;;;;;4.97;0.60;;;;;;;;;;5284297;28;20047;-71
2022/05/29 08:59:30;;;;;;;7.78;0.60;;;;;;;;;;5284727;28;20607;-71
2022/05/29 09:02:08;;;;;;;8.25;1.10;;;;;;;;;;5284354;28;20165;-71
2022/05/29 09:04:41;;;;;;;4.60;0.45;;;;;;;;;;5284097;28;20107;-70
2022/05/29 09:07:17;;;;;;;7.93;0.80;;;;;;;;;;5284673;28;20017;-70
2022/05/29 09:09:50;;;;;;;4.70;0.52;;;;;;;;;;5283743;28;20131;-70
2022/05/29 09:12:24;;;;;;;7.47;1.25;;;;;;;;;;5284376;28;20098;-70
2022/05/29 09:14:59;;;;;;;6.72;0.95;;;;;;;;;;5285015;28;20489;-70
2022/05/29 09:17:49;;;;;;;4.25;0.63;;;;;;;;;;5283357;28;20017;-70
2022/05/29 09:20:23;;;;;;;6.38;0.82;;;;;;;;;;5283731;28;20032;-73
2022/05/29 09:22:59;;;;;;;10.90;1.42;;;;;;;;;;5284571;28;20016;-72
2022/05/29 09:25:30;;;;;;;3.97;0.55;;;;;;;;;;5283047;28;20487;-70
2022/05/29 09:28:02;;;;;;;4.47;1.30;;;;;;;;;;5284185;28;20020;-69
2022/05/29 09:30:33;;;;;;;3.05;0.40;;;;;;;;;;5283977;28;20016;-70
2022/05/29 09:33:10;;;;;;;2.67;0.30;;;;;;;;;;5283653;28;20031;-70
2022/05/29 09:36:00;;;;;;;3.85;0.57;;;;;;;;;;5284125;28;20753;-70
2022/05/29 09:38:51;;;;;;;2.22;0.40;;;;;;;;;;5283280;28;20016;-70
2022/05/29 09:41:34;;;;;;;6.18;0.43;;;;;;;;;;5283689;28;20143;-70
2022/05/29 09:44:19;;;;;;;4.20;0.57;;;;;;;;;;5283305;28;20012;-70
2022/05/29 09:46:51;;;;;;;3.15;0.45;;;;;;;;;;5283522;28;20390;-70
2022/05/29 09:49:45;;;;;;;2.63;0.40;;;;;;;;;;5283534;28;20021;-70
2022/05/29 09:52:20;;;;;;;2.25;0.30;;;;;;;;;;5283134;28;20375;-70
2022/05/29 09:54:56;;;;;;;3.78;0.40;;;;;;;;;;5283917;28;20021;-75
2022/05/29 09:57:56;;;;;;;1.48;0.22;;;;;;;;;;5283275;28;20025;-70
2022/05/29 10:00:30;;;;;;;6.07;0.50;;;;;;;;;;5273560;28;20070;-69
2022/05/29 10:03:02;;;;;;;2.25;0.32;;;;;;;;;;5283687;28;20059;-69
2022/05/29 10:05:38;;;;;;;3.13;0.70;;;;;;;;;;5283481;28;20009;-69
2022/05/29 10:08:17;;;;;;;3.83;0.40;;;;;;;;;;5282548;28;20012;-70
2022/05/29 10:10:48;;;;;;;;;;;;;;;;;;5283633;28;20033;-69
2022/05/29 10:13:36;;;;;;;5.27;0.70;;;;;;;;;;5282491;28;20363;-69
2022/05/29 10:16:08;;;;;;;5.07;0.50;;;;;;;;;;5283500;28;20293;-69
2022/05/29 10:18:40;;;;;;;2.78;0.40;;;;;;;;;;5283421;28;20101;-70
2022/05/29 10:21:19;;;;;;;3.85;0.60;;;;;;;;;;5282287;28;20378;-70
2022/05/29 10:23:52;;;;;;;4.88;0.45;;;;;;;;;;5283632;28;20044;-70
2022/05/29 10:26:29;;;;;;;3.35;0.63;;;;;;;;;;5283054;28;20036;-70
2022/05/29 10:29:11;;;;;;;1.70;0.20;;;;;;;;;;5282475;28;20127;-70
2022/05/29 10:31:43;;;;;;;2.47;0.20;;;;;;;;;;5283480;28;20020;-68
2022/05/29 10:34:22;;;;;;;3.50;0.30;;;;;;;;;;5282328;28;20523;-68
2022/05/29 10:36:53;;;;;;;;;;;;;;;;;;5283843;28;20057;-68
2022/05/29 10:39:26;;;;;;;3.40;0.30;;;;;;;;;;5282445;28;19940;-69
2022/05/29 10:41:58;;;;;;;3.67;0.40;;;;;;;;;;5282482;28;20115;-69
2022/05/29 10:44:41;;;;;;;3.22;0.50;;;;;;;;;;5282591;28;20019;-69
2022/05/29 10:47:30;;;;;;;3.15;0.40;;;;;;;;;;5282595;28;20024;-69
2022/05/29 10:50:07;;;;;;;2.70;0.50;;;;;;;;;;5281573;28;20020;-69
2022/05/29 10:52:41;;;;;;;3.83;0.70;;;;;;;;;;5281791;28;20177;-69
2022/05/29 10:55:21;;;;;;;3.67;0.70;;;;;;;;;;5280778;28;20029;-69
2022/05/29 10:58:01;;;;;;;6.85;1.20;;;;;;;;;;5282736;28;20031;-69
2022/05/29 11:00:38;;;;;;;7.00;1.30;;;;;;;;;;5282445;28;20472;-69
2022/05/29 11:03:28;;;;;;;5.40;0.70;;;;;;;;;;5281806;28;20047;-68
2022/05/29 11:06:07;;;;;;;3.90;0.65;;;;;;;;;;5282573;28;20024;-68
2022/05/29 11:08:38;;;;;;;4.13;0.60;;;;;;;;;;5278622;28;20033;-68
2022/05/29 11:11:28;;;;;;;5.40;0.50;;;;;;;;;;5281268;28;20062;-68
2022/05/29 11:14:11;;;;;;;4.50;0.50;;;;;;;;;;5282311;28;20281;-68
2022/05/29 11:17:05;;;;;;;3.78;0.65;;;;;;;;;;5362469;27;20889;-69
2022/05/29 11:19:47;;;;;;;4.85;0.80;;;;;;;;;;5363551;27;20370;-69
2022/05/29 11:22:29;;;;;;;2.30;0.50;;;;;;;;;;5363258;27;20015;-69
2022/05/29 11:25:06;;;;;;;6.57;0.50;;;;;;;;;;5362714;27;20078;-69
2022/05/29 11:27:57;;;;;;;3.75;0.47;;;;;;;;;;5363079;27;20023;-69
2022/05/29 11:30:51;;;;;;;2.40;0.30;;;;;;;;;;5362306;27;20023;-69
2022/05/29 11:33:41;;;;;;;2.70;0.50;;;;;;;;;;5362899;27;20026;-69
2022/05/29 11:36:12;;;;;;;2.20;0.50;;;;;;;;;;5363208;27;20027;-70
2022/05/29 11:38:43;;;;;;;3.55;0.40;;;;;;;;;;5362492;27;20060;-69
2022/05/29 11:41:33;;;;;;;2.25;0.40;;;;;;;;;;5363268;27;20023;-70
2022/05/29 11:44:05;;;;;;;3.45;0.35;;;;;;;;;;5363048;27;20023;-69
2022/05/29 11:52:42;;;;;;;2.13;0.47;;;;;;;;;;5362290;27;20023;-69
2022/05/29 11:55:21;;;;;;;4.50;0.73;;;;;;;;;;5363325;27;20398;-69
2022/05/29 11:58:01;;;;;;;3.38;0.47;;;;;;;;;;5363184;27;20068;-69
2022/05/29 12:00:42;;;;;;;2.33;0.30;;;;;;;;;;5362396;27;20109;-69
2022/05/29 12:03:19;;;;;;;2.58;0.30;;;;;;;;;;5362809;27;20067;-69
2022/05/29 12:06:09;;;;;;;2.38;0.25;;;;;;;;;;5362374;27;20094;-69
2022/05/29 12:08:46;;;;;;;2.10;0.55;;;;;;;;;;5362682;27;20488;-69
2022/05/29 12:11:26;;;;;;;2.63;0.77;;;;;;;;;;5362843;27;20054;-69
2022/05/29 12:14:07;;;;;;;2.78;0.20;;;;;;;;;;5362401;27;20019;-69
2022/05/29 12:16:40;;;;;;;3.42;0.35;;;;;;;;;;5362498;27;20729;-68
2022/05/29 12:19:26;;;;;;;1.38;0.13;;;;;;;;;;5362553;27;20480;-68
2022/05/29 12:22:00;;;;;;;2.65;0.20;;;;;;;;;;5363135;27;20027;-68
2022/05/29 12:24:34;;;;;;;1.08;0.15;;;;;;;;;;5362543;27;20015;-68
2022/05/29 12:27:09;;;;;;;1.55;0.25;;;;;;;;;;5353688;27;20018;-68
2022/05/29 12:29:59;;;;;;;1.80;0.13;;;;;;;;;;5348030;27;20030;-68
2022/05/29 12:32:31;;;;;;;1.33;0.10;;;;;;;;;;5347821;27;20054;-68
2022/05/29 12:35:07;;;;;;;2.83;0.20;;;;;;;;;;5346996;27;20108;-68
2022/05/29 12:37:46;;;;;;;3.55;0.50;;;;;;;;;;5347977;27;20015;-68
2022/05/29 12:40:17;;;;;;;2.70;0.20;;;;;;;;;;5347694;27;20530;-68
2022/05/29 12:43:07;;;;;;;0.77;0.20;;;;;;;;;;5346961;27;20027;-68
2022/05/29 12:45:54;;;;;;;1.65;0.20;;;;;;;;;;5347473;27;20315;-68
2022/05/29 12:48:43;;;;;;;0.73;0.10;;;;;;;;;;5346343;27;20105;-68
2022/05/29 12:51:19;;;;;;;1.42;0.20;;;;;;;;;;5347340;27;20030;-68
2022/05/29 12:54:10;;;;;;;0.82;0.10;;;;;;;;;;5347714;27;20011;-68
2022/05/29 12:56:42;;;;;;;1.48;0.20;;;;;;;;;;5346338;27;20043;-68
2022/05/29 12:59:29;;;;;;;1.40;0.10;;;;;;;;;;5347378;27;20027;-69
2022/05/29 13:02:17;;;;;;;1.25;0.20;;;;;;;;;;5346423;27;20015;-68
2022/05/29 13:04:51;;;;;;;1.92;0.10;;;;;;;;;;5347088;27;20030;-69
2022/05/29 13:07:27;;;;;;;1.13;0.10;;;;;;;;;;5346580;27;20027;-68
2022/05/29 13:10:13;;;;;;;2.75;0.10;;;;;;;;;;5346723;27;20098;-69
2022/05/29 13:12:52;;;;;;;2.17;0.10;;;;;;;;;;5347024;27;20026;-69
2022/05/29 13:15:27;;;;;;;1.15;0.10;;;;;;;;;;5346295;27;20074;-69
2022/05/29 13:18:04;;;;;;;1.05;0.15;;;;;;;;;;5346383;27;20039;-68
2022/05/29 13:20:55;;;;;;;2.05;0.30;;;;;;;;;;5346773;27;20015;-69
2022/05/29 13:23:32;;;;;;;1.88;0.13;;;;;;;;;;5342966;27;20011;-68
2022/05/29 13:26:03;;;;;;;2.03;0.20;;;;;;;;;;5345406;27;20015;-68
2022/05/29 13:28:34;;;;;;;2.67;0.22;;;;;;;;;;5346590;27;20015;-70
2022/05/29 13:31:07;;;;;;;2.17;0.50;;;;;;;;;;5345856;27;20035;-70
2022/05/29 13:33:46;;;;;;;3.03;0.30;;;;;;;;;;5346779;27;20752;-70
2022/05/29 13:36:17;;;;;;;;;;;;;;;;;;5346812;27;20580;-69
2022/05/29 13:38:51;;;;;;;2.65;0.30;;;;;;;;;;5345070;27;19982;-70
2022/05/29 13:41:30;;;;;;;3.17;0.30;;;;;;;;;;5346362;27;20340;-70
2022/05/29 13:44:01;;;;;;;;;;;;;;;;;;5346010;27;20015;-70
2022/05/29 13:46:33;;;;;;;3.78;0.55;;;;;;;;;;5346079;27;20277;-72
2022/05/29 13:49:19;;;;;;;3.42;0.30;;;;;;;;;;5346034;27;20478;-71
2022/05/29 13:51:51;;;;;;;7.07;0.50;;;;;;;;;;5345788;27;20050;-71
2022/05/29 13:54:24;;;;;;;2.92;0.60;;;;;;;;;;5345630;27;20057;-70
2022/05/29 13:56:57;;;;;;;3.67;0.30;;;;;;;;;;5346197;27;20114;-69
2022/05/29 14:05:37;;;;;;;4.85;0.40;;;;;;;;;;5344889;27;20390;-69
2022/05/29 14:08:18;;;;;;;4.53;0.40;;;;;;;;;;5345846;27;20215;-69
2022/05/29 14:11:10;;;;;;;5.38;0.60;;;;;;;;;;5346076;27;20015;-70
2022/05/29 14:13:49;;;;;;;5.20;0.82;;;;;;;;;;5344696;27;20012;-70
2022/05/29 14:16:30;;;;;;;5.97;1.10;;;;;;;;;;5344957;27;20043;-70
2022/05/29 14:19:07;;;;;;;4.22;0.50;;;;;;;;;;5344856;27;20019;-70
2022/05/29 14:21:43;;;;;;;5.05;0.50;;;;;;;;;;5345404;27;20057;-70
2022/05/29 14:24:27;;;;;;;2.25;0.40;;;;;;;;;;5345109;27;20011;-69
2022/05/29 14:27:05;;;;;;;5.05;0.40;;;;;;;;;;5345046;27;20023;-70
2022/05/29 14:29:46;;;;;;;2.47;0.50;;;;;;;;;;5345531;27;20043;-68
2022/05/29 14:32:17;;;;;;;2.15;0.70;;;;;;;;;;5345461;27;20023;-68
2022/05/29 14:35:13;;;;;;;4.38;0.40;;;;;;;;;;5344592;27;20362;-69
2022/05/29 14:37:57;;;;;;;6.43;0.40;;;;;;;;;;5345376;27;20310;-69
2022/05/29 14:40:40;;;;;;;4.63;0.77;;;;;;;;;;5344298;27;20416;-70
2022/05/29 14:43:13;;;;;;;4.55;0.50;;;;;;;;;;5345017;27;20068;-70
2022/05/29 14:46:06;;;;;;;4.45;0.52;;;;;;;;;;5345317;27;20466;-70
2022/05/29 14:48:41;;;;;;;3.90;0.40;;;;;;;;;;5344202;27;20028;-69
2022/05/29 14:51:20;;;;;;;4.72;0.50;;;;;;;;;;5344293;27;20481;-70
2022/05/29 14:53:51;;;;;;;;;;;;;;;;;;5345535;27;20054;-69
2022/05/29 14:56:36;;;;;;;6.78;0.40;;;;;;;;;;5343894;27;20003;-69
2022/05/29 14:59:19;;;;;;;5.70;0.50;;;;;;;;;;5345019;27;20492;-70
2022/05/29 15:01:55;;;;;;;5.53;0.63;;;;;;;;;;5344453;27;20027;-70
2022/05/29 15:04:33;;;;;;;7.28;0.45;;;;;;;;;;5344876;27;20530;-70
2022/05/29 15:12:48;;;;;;;5.95;0.73;;;;;;;;;;5344779;27;20035;-70
2022/05/29 15:15:26;;;;;;;3.80;0.30;;;;;;;;;;5343351;28;20470;-70
2022/05/29 15:18:07;;;;;;;7.82;0.55;;;;;;;;;;5345116;28;20299;-70
2022/05/29 15:24:15;;;;;;;1.98;0.40;;;;;;;;;;5343717;28;20031;-71
2022/05/29 15:26:48;;;;;;;7.10;0.60;;;;;;;;;;5344655;28;20018;-70
2022/05/29 15:29:25;;;;;;;2.85;0.30;;;;;;;;;;5344079;28;20569;-70
2022/05/29 15:31:59;;;;;;;4.53;0.30;;;;;;;;;;5345106;28;20007;-70
2022/05/29 15:34:54;;;;;;;5.88;0.38;;;;;;;;;;5344330;28;20023;-70
2022/05/29 15:37:43;;;;;;;4.95;0.30;;;;;;;;;;5343348;28;20019;-70
2022/05/29 15:40:23;;;;;;;5.55;0.40;;;;;;;;;;5344586;28;20039;-69
2022/05/29 15:43:04;;;;;;;3.13;0.30;;;;;;;;;;5344922;28;20050;-70
2022/05/29 15:45:45;;;;;;;2.00;0.28;;;;;;;;;;5343636;28;20019;-71
2022/05/29 15:48:19;;;;;;;3.85;0.45;;;;;;;;;;5344441;28;20035;-69
2022/05/29 15:50:56;;;;;;;3.95;0.20;;;;;;;;;;5343861;28;20071;-70
2022/05/29 15:53:39;;;;;;;4.40;0.40;;;;;;;;;;5343838;28;20069;-70
2022/05/29 15:56:14;;;;;;;4.78;0.30;;;;;;;;;;5344188;28;20039;-69
2022/05/29 15:58:52;;;;;;;2.60;0.40;;;;;;;;;;5343337;28;20019;-69
2022/05/29 16:01:23;;;;;;;3.88;0.40;;;;;;;;;;5344314;27;20458;-70
2022/05/29 16:03:54;;;;;;;3.65;0.20;;;;;;;;;;5348626;27;20026;-70
2022/05/29 16:06:40;;;;;;;1.30;0.28;;;;;;;;;;5347265;27;20023;-69
2022/05/29 16:09:14;;;;;;;6.20;0.30;;;;;;;;;;5345390;27;20653;-69
2022/05/29 16:11:55;;;;;;;3.70;0.20;;;;;;;;;;5347459;27;20019;-70
2022/05/29 16:14:55;;;;;;;3.92;0.25;;;;;;;;;;5347772;27;20110;-70
2022/05/29 16:17:32;;;;;;;1.15;0.20;;;;;;;;;;5325899;27;20537;-70
2022/05/29 16:20:21;;;;;;;2.35;0.20;;;;;;;;;;5347731;27;20392;-69
2022/05/29 16:23:13;;;;;;;3.60;0.50;;;;;;;;;;5348240;27;20039;-69